メインページ
METAR-TAF:

METAR-TAF

空港 :

東京国際空港

東京 / 羽田国際空港, 日本

緯度: 35-33N, 経度: 139-47E, 海抜: 5m

現時点の気象観測

当レポートは42分前の02:00(UTC)に作成
北西の風 8kt
気温 6°C
湿度 81%
気圧 1025 hPa
視程10km以上
高度1000ftの雲はほとんどない
高度2000ftの千切れ雲あり
高度3000ftの千切れ雲あり
小雨

METAR: RJTT 070200Z 31008KT 9999 -RA FEW010 BKN020 BKN030 06/03 Q1025 NOSIG RMK 1CU010 5SC020 7SC030 A3027 MOD TURB OBS AT 0132Z TEDIX BTN FL160 AND FL140 IN DES BY B763

時間: 11:42 (02:42 UTC)

予報

当レポートは3時間37分前の23:05(UTC)に作成
予報は07日の 00時(UTC)から 08日の 06時(UTC)まで有効
北/北東の風 10kt
視程: 8000m
高度1000ftの雲はほとんどない
高度2000ftの千切れ雲あり

TAF: RJTT 062305Z 0700/0806 02010KT 8000 FEW010 BKN020

4,000以上の空港の気象観測と天気予報(METAR報とTAF報)

利用可能な観測所は地図上に黄色い丸と赤い丸で示す。

丸の上にカーソルを重ねると観測所名を参照できる。

次にクリックすると気象観測と天気予報を参照できる。

マップの切り替え:黒色「×」印の緑ボタンをクリックして拡大、「-」印の緑ボタンをクリックして縮小、緑色の三角印をクリックして隣りの地図に切り替え


METAR-TAF: